Francisco Bangoy International Airport
RPMD : now visible

Airfield :











YOU CAN JOIN US ON...

 
LOGIN :

Register | Disclaimer

   EN    FR    IT 

 









Legend :    VFR   Marginal VFR   IFR   Intensive IFR   Very Intensive IFR
Visi :
Ceiling :
>= 8 km
>= 3000ft
5 to 8 km
1000 to 3000 ft
1500m to 5 km
500 to 1000 ft
800 to 1500m
200 to 500 ft
< 800m
< 200 ft
Symbols :   Thunderstorms  Fog  Heavy snow  Heavy precipitations  Wind > 20 kt






- Airport Elevation : 96 ft
- IATA code : DVO


RPMD - Francisco Bangoy International

CURRENT METAR :
  • 020700Z 03010KT 350V050 9999 SCT016 32/23 Q1008 RMK A2977

EXPIRED METARs :
  • 020600Z 01009KT 320V040 9999 FEW020 BKN080 32/22 Q1010 RMK A2983
  • 020500Z 35011KT 310V030 9999 FEW020 SCT090 31/21 Q1011 RMK A2985
  • 012100Z 36003KT 320V040 9999 FEW016 BKN090 25/22 Q1011 RMK A2985
  • 020400Z 02009KT 330V050 9999 SCT020 31/22 Q1012 RMK A2988
  • 020300Z 36010KT 310V030 9999 SCT020 30/22 Q1012 RMK A2988

TAF TAF RPMD
Valid from the 02 at 06:00 until the 03 at 06:00 UTC


020500Z 0206/0306 36007KT 9999 FEW016 SCT090
TEMPO 0206/0212 04010KT SCT016CB BKN090
RPHI FIR / Asia



MET'MAP, your aeronautical weather chart ! - Copyright ORBIFLY December 2007 - Disclaimer

ORBIFLY MET'MAP TEAM :

Programming & Development : Alexandra Zaïnal
Original concept : Baudouin d'Aumeries
Technical & hardware support : Manuel Goepfert
Assistance : Marc-Olivier Méhu




SOURCES & CREDITS :

   NOAA       Earth
Advisory